sensor_id;sensor_type;location;lat;lon;timestamp;temperature;humidity
11047;DHT22;5576;50.008;10.596;2023-08-20T00:00:28;23.90;99.90
11047;DHT22;5576;50.008;10.596;2023-08-20T00:02:59;26.40;99.90
11047;DHT22;5576;50.008;10.596;2023-08-20T00:05:29;24.30;99.90
11047;DHT22;5576;50.008;10.596;2023-08-20T00:07:55;23.40;99.90
11047;DHT22;5576;50.008;10.596;2023-08-20T00:10:20;23.90;99.90
11047;DHT22;5576;50.008;10.596;2023-08-20T00:12:46;23.90;99.90
11047;DHT22;5576;50.008;10.596;2023-08-20T00:15:12;23.90;99.90
11047;DHT22;5576;50.008;10.596;2023-08-20T00:17:39;25.00;99.90
11047;DHT22;5576;50.008;10.596;2023-08-20T00:20:07;23.70;99.90
11047;DHT22;5576;50.008;10.596;2023-08-20T00:22:36;22.50;99.90
11047;DHT22;5576;50.008;10.596;2023-08-20T00:25:02;23.80;99.90
11047;DHT22;5576;50.008;10.596;2023-08-20T00:27:29;23.70;99.90
11047;DHT22;5576;50.008;10.596;2023-08-20T00:29:55;23.60;99.90
11047;DHT22;5576;50.008;10.596;2023-08-20T00:32:21;23.70;99.90
11047;DHT22;5576;50.008;10.596;2023-08-20T00:34:47;24.70;99.90
11047;DHT22;5576;50.008;10.596;2023-08-20T00:37:12;23.50;99.90
11047;DHT22;5576;50.008;10.596;2023-08-20T00:39:39;23.50;99.90
11047;DHT22;5576;50.008;10.596;2023-08-20T00:42:05;21.40;99.90
11047;DHT22;5576;50.008;10.596;2023-08-20T00:44:31;23.50;99.90
11047;DHT22;5576;50.008;10.596;2023-08-20T00:46:57;23.40;99.90
11047;DHT22;5576;50.008;10.596;2023-08-20T00:49:26;23.30;99.90
11047;DHT22;5576;50.008;10.596;2023-08-20T00:51:52;23.30;99.90
11047;DHT22;5576;50.008;10.596;2023-08-20T00:54:18;23.20;99.90
11047;DHT22;5576;50.008;10.596;2023-08-20T00:56:44;23.10;99.90
11047;DHT22;5576;50.008;10.596;2023-08-20T00:59:10;23.20;99.90
11047;DHT22;5576;50.008;10.596;2023-08-20T01:01:36;23.20;99.90
11047;DHT22;5576;50.008;10.596;2023-08-20T01:04:02;23.20;99.90
11047;DHT22;5576;50.008;10.596;2023-08-20T01:06:44;23.20;99.90
11047;DHT22;5576;50.008;10.596;2023-08-20T01:11:57;22.30;99.90
11047;DHT22;5576;50.008;10.596;2023-08-20T01:14:24;23.20;99.90
11047;DHT22;5576;50.008;10.596;2023-08-20T01:16:50;23.20;99.90
11047;DHT22;5576;50.008;10.596;2023-08-20T01:19:17;23.20;99.90
11047;DHT22;5576;50.008;10.596;2023-08-20T01:21:56;23.20;99.90
11047;DHT22;5576;50.008;10.596;2023-08-20T01:30:15;23.10;99.90
11047;DHT22;5576;50.008;10.596;2023-08-20T01:32:43;23.00;99.90
11047;DHT22;5576;50.008;10.596;2023-08-20T01:35:12;23.00;99.90
11047;DHT22;5576;50.008;10.596;2023-08-20T01:37:40;22.80;99.90
11047;DHT22;5576;50.008;10.596;2023-08-20T01:40:07;22.80;99.90
11047;DHT22;5576;50.008;10.596;2023-08-20T01:42:37;26.10;99.90
11047;DHT22;5576;50.008;10.596;2023-08-20T01:45:04;22.70;99.90
11047;DHT22;5576;50.008;10.596;2023-08-20T01:47:30;24.00;99.90
11047;DHT22;5576;50.008;10.596;2023-08-20T01:49:56;22.70;99.90
11047;DHT22;5576;50.008;10.596;2023-08-20T01:52:21;26.00;99.90
11047;DHT22;5576;50.008;10.596;2023-08-20T01:54:48;19.90;99.90
11047;DHT22;5576;50.008;10.596;2023-08-20T01:57:14;20.00;99.90
11047;DHT22;5576;50.008;10.596;2023-08-20T01:59:40;22.60;99.90
11047;DHT22;5576;50.008;10.596;2023-08-20T02:02:06;22.50;99.90
11047;DHT22;5576;50.008;10.596;2023-08-20T02:04:32;22.40;99.90
11047;DHT22;5576;50.008;10.596;2023-08-20T02:06:58;24.90;99.90
11047;DHT22;5576;50.008;10.596;2023-08-20T02:09:27;22.40;99.90
11047;DHT22;5576;50.008;10.596;2023-08-20T02:11:52;22.40;99.90
11047;DHT22;5576;50.008;10.596;2023-08-20T02:14:18;22.30;99.90
11047;DHT22;5576;50.008;10.596;2023-08-20T02:16:46;22.30;99.90
11047;DHT22;5576;50.008;10.596;2023-08-20T02:19:11;26.20;99.90
11047;DHT22;5576;50.008;10.596;2023-08-20T02:21:37;22.40;99.90
11047;DHT22;5576;50.008;10.596;2023-08-20T02:24:03;22.40;99.90
11047;DHT22;5576;50.008;10.596;2023-08-20T02:26:30;20.20;99.90
11047;DHT22;5576;50.008;10.596;2023-08-20T02:28:56;22.30;99.90
11047;DHT22;5576;50.008;10.596;2023-08-20T02:31:21;22.30;99.90
11047;DHT22;5576;50.008;10.596;2023-08-20T02:33:47;22.20;99.90
11047;DHT22;5576;50.008;10.596;2023-08-20T02:36:13;22.20;99.90
11047;DHT22;5576;50.008;10.596;2023-08-20T02:38:38;22.10;99.90
11047;DHT22;5576;50.008;10.596;2023-08-20T02:41:04;22.10;99.90
11047;DHT22;5576;50.008;10.596;2023-08-20T02:43:30;22.10;99.90
11047;DHT22;5576;50.008;10.596;2023-08-20T02:45:56;22.00;99.90
11047;DHT22;5576;50.008;10.596;2023-08-20T02:48:22;22.00;99.90
11047;DHT22;5576;50.008;10.596;2023-08-20T02:50:53;21.90;99.90
11047;DHT22;5576;50.008;10.596;2023-08-20T02:53:20;21.90;99.90
11047;DHT22;5576;50.008;10.596;2023-08-20T02:55:46;20.10;99.90
11047;DHT22;5576;50.008;10.596;2023-08-20T02:58:12;20.60;99.90
11047;DHT22;5576;50.008;10.596;2023-08-20T03:00:38;21.90;99.90
11047;DHT22;5576;50.008;10.596;2023-08-20T03:03:05;21.80;99.90
11047;DHT22;5576;50.008;10.596;2023-08-20T03:05:34;21.80;99.90
11047;DHT22;5576;50.008;10.596;2023-08-20T03:08:00;21.80;99.90
11047;DHT22;5576;50.008;10.596;2023-08-20T03:10:27;21.60;99.90
11047;DHT22;5576;50.008;10.596;2023-08-20T03:12:53;18.40;99.90
11047;DHT22;5576;50.008;10.596;2023-08-20T03:15:19;21.50;99.90
11047;DHT22;5576;50.008;10.596;2023-08-20T03:17:44;21.50;99.90
11047;DHT22;5576;50.008;10.596;2023-08-20T03:20:11;24.40;99.90
11047;DHT22;5576;50.008;10.596;2023-08-20T03:22:37;21.60;99.90
11047;DHT22;5576;50.008;10.596;2023-08-20T03:25:04;21.60;99.90
11047;DHT22;5576;50.008;10.596;2023-08-20T03:27:30;21.60;99.90
11047;DHT22;5576;50.008;10.596;2023-08-20T03:29:55;21.60;99.90
11047;DHT22;5576;50.008;10.596;2023-08-20T03:32:22;21.60;99.90
11047;DHT22;5576;50.008;10.596;2023-08-20T03:34:49;21.60;99.90
11047;DHT22;5576;50.008;10.596;2023-08-20T03:37:17;21.50;99.90
11047;DHT22;5576;50.008;10.596;2023-08-20T03:39:43;19.50;99.90
11047;DHT22;5576;50.008;10.596;2023-08-20T03:42:09;21.50;99.90
11047;DHT22;5576;50.008;10.596;2023-08-20T03:44:34;21.50;99.90
11047;DHT22;5576;50.008;10.596;2023-08-20T03:47:01;20.40;99.90
11047;DHT22;5576;50.008;10.596;2023-08-20T03:49:26;21.50;99.90
11047;DHT22;5576;50.008;10.596;2023-08-20T03:51:52;21.50;99.90
11047;DHT22;5576;50.008;10.596;2023-08-20T03:54:18;21.50;99.90
11047;DHT22;5576;50.008;10.596;2023-08-20T03:56:43;21.50;99.90
11047;DHT22;5576;50.008;10.596;2023-08-20T03:59:09;21.50;99.90
11047;DHT22;5576;50.008;10.596;2023-08-20T04:01:35;21.50;99.90
11047;DHT22;5576;50.008;10.596;2023-08-20T04:04:03;18.20;99.90
11047;DHT22;5576;50.008;10.596;2023-08-20T04:06:29;21.50;99.90
11047;DHT22;5576;50.008;10.596;2023-08-20T04:08:55;21.60;99.90
11047;DHT22;5576;50.008;10.596;2023-08-20T04:11:20;21.60;99.90
11047;DHT22;5576;50.008;10.596;2023-08-20T04:13:46;21.60;99.90
11047;DHT22;5576;50.008;10.596;2023-08-20T04:16:12;21.50;99.90
11047;DHT22;5576;50.008;10.596;2023-08-20T04:18:39;21.70;99.90
11047;DHT22;5576;50.008;10.596;2023-08-20T04:21:05;22.10;99.90
11047;DHT22;5576;50.008;10.596;2023-08-20T04:23:33;21.70;99.90
11047;DHT22;5576;50.008;10.596;2023-08-20T04:25:59;21.80;99.90
11047;DHT22;5576;50.008;10.596;2023-08-20T04:30:52;21.80;99.90
11047;DHT22;5576;50.008;10.596;2023-08-20T04:33:20;21.70;99.90
11047;DHT22;5576;50.008;10.596;2023-08-20T04:35:48;21.60;99.90
11047;DHT22;5576;50.008;10.596;2023-08-20T04:38:16;21.60;99.90
11047;DHT22;5576;50.008;10.596;2023-08-20T04:40:42;21.50;99.90
11047;DHT22;5576;50.008;10.596;2023-08-20T04:43:11;21.50;99.90
11047;DHT22;5576;50.008;10.596;2023-08-20T04:45:37;21.40;99.90
11047;DHT22;5576;50.008;10.596;2023-08-20T04:48:03;21.00;99.90
11047;DHT22;5576;50.008;10.596;2023-08-20T04:52:55;21.50;99.90
11047;DHT22;5576;50.008;10.596;2023-08-20T04:55:22;21.40;99.90
11047;DHT22;5576;50.008;10.596;2023-08-20T04:57:48;18.50;99.90
11047;DHT22;5576;50.008;10.596;2023-08-20T05:00:15;21.50;99.90
11047;DHT22;5576;50.008;10.596;2023-08-20T05:02:44;19.00;99.90
11047;DHT22;5576;50.008;10.596;2023-08-20T05:05:14;21.60;99.90
11047;DHT22;5576;50.008;10.596;2023-08-20T05:07:39;21.60;99.90
11047;DHT22;5576;50.008;10.596;2023-08-20T05:10:07;21.60;99.90
11047;DHT22;5576;50.008;10.596;2023-08-20T05:12:34;19.80;99.90
11047;DHT22;5576;50.008;10.596;2023-08-20T05:15:00;21.50;99.90
11047;DHT22;5576;50.008;10.596;2023-08-20T05:17:26;18.90;99.90
11047;DHT22;5576;50.008;10.596;2023-08-20T05:19:52;21.50;99.90
11047;DHT22;5576;50.008;10.596;2023-08-20T05:22:17;20.50;99.90
11047;DHT22;5576;50.008;10.596;2023-08-20T05:24:43;21.50;99.90
11047;DHT22;5576;50.008;10.596;2023-08-20T05:27:17;21.40;99.90
11047;DHT22;5576;50.008;10.596;2023-08-20T05:29:45;24.40;99.90
11047;DHT22;5576;50.008;10.596;2023-08-20T05:32:11;19.10;99.90
11047;DHT22;5576;50.008;10.596;2023-08-20T05:34:37;21.40;99.90
11047;DHT22;5576;50.008;10.596;2023-08-20T05:37:03;21.40;99.90
11047;DHT22;5576;50.008;10.596;2023-08-20T05:39:30;21.50;99.90
11047;DHT22;5576;50.008;10.596;2023-08-20T05:41:56;21.50;99.90
11047;DHT22;5576;50.008;10.596;2023-08-20T05:44:24;21.50;99.90
11047;DHT22;5576;50.008;10.596;2023-08-20T05:46:49;20.50;99.90
11047;DHT22;5576;50.008;10.596;2023-08-20T05:49:16;21.50;99.90
11047;DHT22;5576;50.008;10.596;2023-08-20T05:51:43;21.50;99.90
11047;DHT22;5576;50.008;10.596;2023-08-20T05:54:10;19.40;99.90
11047;DHT22;5576;50.008;10.596;2023-08-20T05:56:37;21.60;99.90
11047;DHT22;5576;50.008;10.596;2023-08-20T05:59:03;21.70;99.90
11047;DHT22;5576;50.008;10.596;2023-08-20T06:01:29;21.70;99.90
11047;DHT22;5576;50.008;10.596;2023-08-20T06:03:54;21.80;99.90
11047;DHT22;5576;50.008;10.596;2023-08-20T06:06:21;21.80;99.90
11047;DHT22;5576;50.008;10.596;2023-08-20T06:08:47;21.90;99.90
11047;DHT22;5576;50.008;10.596;2023-08-20T06:11:13;25.60;99.90
11047;DHT22;5576;50.008;10.596;2023-08-20T06:13:39;22.30;99.90
11047;DHT22;5576;50.008;10.596;2023-08-20T06:16:04;21.60;99.90
11047;DHT22;5576;50.008;10.596;2023-08-20T06:18:30;18.40;99.90
11047;DHT22;5576;50.008;10.596;2023-08-20T06:20:56;25.90;99.90
11047;DHT22;5576;50.008;10.596;2023-08-20T06:23:21;18.50;99.90
11047;DHT22;5576;50.008;10.596;2023-08-20T06:25:47;22.30;99.90
11047;DHT22;5576;50.008;10.596;2023-08-20T06:28:15;22.30;99.90
11047;DHT22;5576;50.008;10.596;2023-08-20T06:30:41;25.50;99.90
11047;DHT22;5576;50.008;10.596;2023-08-20T06:33:06;22.40;99.90
11047;DHT22;5576;50.008;10.596;2023-08-20T06:35:32;19.80;99.90
11047;DHT22;5576;50.008;10.596;2023-08-20T06:37:59;22.50;99.90
11047;DHT22;5576;50.008;10.596;2023-08-20T06:40:25;22.50;99.90
11047;DHT22;5576;50.008;10.596;2023-08-20T06:42:51;22.60;99.90
11047;DHT22;5576;50.008;10.596;2023-08-20T06:45:16;22.70;99.90
11047;DHT22;5576;50.008;10.596;2023-08-20T06:47:42;21.70;99.90
11047;DHT22;5576;50.008;10.596;2023-08-20T06:50:08;22.80;99.90
11047;DHT22;5576;50.008;10.596;2023-08-20T06:52:34;22.80;99.90
11047;DHT22;5576;50.008;10.596;2023-08-20T06:55:00;22.70;99.90
11047;DHT22;5576;50.008;10.596;2023-08-20T06:57:25;22.90;99.90
11047;DHT22;5576;50.008;10.596;2023-08-20T06:59:52;23.00;99.90
11047;DHT22;5576;50.008;10.596;2023-08-20T07:02:18;23.00;99.90
11047;DHT22;5576;50.008;10.596;2023-08-20T07:04:43;23.50;99.90
11047;DHT22;5576;50.008;10.596;2023-08-20T07:07:09;21.30;99.90
11047;DHT22;5576;50.008;10.596;2023-08-20T07:09:36;23.20;99.90
11047;DHT22;5576;50.008;10.596;2023-08-20T07:12:04;23.20;99.90
11047;DHT22;5576;50.008;10.596;2023-08-20T07:14:29;21.70;99.90
11047;DHT22;5576;50.008;10.596;2023-08-20T07:16:55;23.30;99.90
11047;DHT22;5576;50.008;10.596;2023-08-20T07:19:21;26.00;99.90
11047;DHT22;5576;50.008;10.596;2023-08-20T07:21:46;23.40;99.90
11047;DHT22;5576;50.008;10.596;2023-08-20T07:24:12;23.50;99.90
11047;DHT22;5576;50.008;10.596;2023-08-20T07:26:38;23.60;99.90
11047;DHT22;5576;50.008;10.596;2023-08-20T07:29:04;23.70;99.90
11047;DHT22;5576;50.008;10.596;2023-08-20T07:31:32;23.70;99.90
11047;DHT22;5576;50.008;10.596;2023-08-20T07:33:59;23.80;99.90
11047;DHT22;5576;50.008;10.596;2023-08-20T07:36:25;24.40;99.90
11047;DHT22;5576;50.008;10.596;2023-08-20T07:38:52;23.20;99.90
11047;DHT22;5576;50.008;10.596;2023-08-20T07:41:19;24.00;99.90
11047;DHT22;5576;50.008;10.596;2023-08-20T07:43:47;22.90;99.90
11047;DHT22;5576;50.008;10.596;2023-08-20T07:46:13;20.70;99.90
11047;DHT22;5576;50.008;10.596;2023-08-20T07:48:39;24.20;99.90
11047;DHT22;5576;50.008;10.596;2023-08-20T07:51:05;24.30;99.90
11047;DHT22;5576;50.008;10.596;2023-08-20T07:55:59;24.40;99.90
11047;DHT22;5576;50.008;10.596;2023-08-20T08:00:51;24.60;99.90
11047;DHT22;5576;50.008;10.596;2023-08-20T08:03:17;24.60;99.90
11047;DHT22;5576;50.008;10.596;2023-08-20T08:05:47;24.70;99.90
11047;DHT22;5576;50.008;10.596;2023-08-20T08:08:15;24.80;99.90
11047;DHT22;5576;50.008;10.596;2023-08-20T08:10:40;23.80;99.90
11047;DHT22;5576;50.008;10.596;2023-08-20T08:13:06;24.90;99.90
11047;DHT22;5576;50.008;10.596;2023-08-20T08:15:32;25.10;99.90
11047;DHT22;5576;50.008;10.596;2023-08-20T08:17:58;21.70;99.90
11047;DHT22;5576;50.008;10.596;2023-08-20T08:20:23;25.10;99.90
11047;DHT22;5576;50.008;10.596;2023-08-20T08:22:49;22.20;99.90
11047;DHT22;5576;50.008;10.596;2023-08-20T08:25:15;21.40;99.90
11047;DHT22;5576;50.008;10.596;2023-08-20T08:27:40;25.30;99.90
11047;DHT22;5576;50.008;10.596;2023-08-20T08:30:06;21.40;99.90
11047;DHT22;5576;50.008;10.596;2023-08-20T08:32:32;26.50;99.90
11047;DHT22;5576;50.008;10.596;2023-08-20T08:34:58;25.40;99.90
11047;DHT22;5576;50.008;10.596;2023-08-20T08:37:23;25.40;99.90
11047;DHT22;5576;50.008;10.596;2023-08-20T08:39:49;25.40;99.90
11047;DHT22;5576;50.008;10.596;2023-08-20T08:42:16;25.50;99.90
11047;DHT22;5576;50.008;10.596;2023-08-20T08:44:44;25.50;99.90
11047;DHT22;5576;50.008;10.596;2023-08-20T08:47:10;25.60;99.90
11047;DHT22;5576;50.008;10.596;2023-08-20T08:49:37;25.80;99.90
11047;DHT22;5576;50.008;10.596;2023-08-20T08:52:03;23.40;99.90
11047;DHT22;5576;50.008;10.596;2023-08-20T08:54:30;23.40;99.90
11047;DHT22;5576;50.008;10.596;2023-08-20T08:56:57;26.10;99.90
11047;DHT22;5576;50.008;10.596;2023-08-20T08:59:23;26.20;99.90
11047;DHT22;5576;50.008;10.596;2023-08-20T09:04:15;26.50;99.90
11047;DHT22;5576;50.008;10.596;2023-08-20T09:06:51;26.60;99.90
11047;DHT22;5576;50.008;10.596;2023-08-20T09:09:18;26.70;99.90
11047;DHT22;5576;50.008;10.596;2023-08-20T09:11:44;25.20;99.90
11047;DHT22;5576;50.008;10.596;2023-08-20T09:14:30;26.90;99.90
11047;DHT22;5576;50.008;10.596;2023-08-20T09:19:31;27.10;99.90
11047;DHT22;5576;50.008;10.596;2023-08-20T09:24:33;26.50;99.90
11047;DHT22;5576;50.008;10.596;2023-08-20T09:27:03;26.00;99.90
11047;DHT22;5576;50.008;10.596;2023-08-20T09:29:32;27.50;99.90
11047;DHT22;5576;50.008;10.596;2023-08-20T09:32:04;27.60;99.90
11047;DHT22;5576;50.008;10.596;2023-08-20T09:34:38;27.80;99.90
11047;DHT22;5576;50.008;10.596;2023-08-20T09:37:08;27.40;99.90
11047;DHT22;5576;50.008;10.596;2023-08-20T09:39:35;27.90;99.90
11047;DHT22;5576;50.008;10.596;2023-08-20T09:42:01;25.00;99.90
11047;DHT22;5576;50.008;10.596;2023-08-20T09:44:33;25.30;99.90
11047;DHT22;5576;50.008;10.596;2023-08-20T09:47:02;25.50;99.90
11047;DHT22;5576;50.008;10.596;2023-08-20T09:49:32;28.30;99.90
11047;DHT22;5576;50.008;10.596;2023-08-20T09:52:03;28.40;99.90
11047;DHT22;5576;50.008;10.596;2023-08-20T09:54:47;28.50;99.90
11047;DHT22;5576;50.008;10.596;2023-08-20T09:57:23;29.50;99.90
11047;DHT22;5576;50.008;10.596;2023-08-20T09:59:51;28.90;99.90
11047;DHT22;5576;50.008;10.596;2023-08-20T10:02:19;28.70;99.90
11047;DHT22;5576;50.008;10.596;2023-08-20T10:04:45;28.80;99.90
11047;DHT22;5576;50.008;10.596;2023-08-20T10:07:11;28.80;99.90
11047;DHT22;5576;50.008;10.596;2023-08-20T10:09:39;28.90;99.90
11047;DHT22;5576;50.008;10.596;2023-08-20T10:14:32;28.90;99.90
11047;DHT22;5576;50.008;10.596;2023-08-20T10:16:58;28.90;99.90
11047;DHT22;5576;50.008;10.596;2023-08-20T10:19:25;25.40;99.90
11047;DHT22;5576;50.008;10.596;2023-08-20T10:21:53;29.00;99.90
11047;DHT22;5576;50.008;10.596;2023-08-20T10:24:19;29.10;99.90
11047;DHT22;5576;50.008;10.596;2023-08-20T10:26:46;29.10;99.90
11047;DHT22;5576;50.008;10.596;2023-08-20T10:29:37;29.20;99.90
11047;DHT22;5576;50.008;10.596;2023-08-20T10:32:12;29.20;99.90
11047;DHT22;5576;50.008;10.596;2023-08-20T10:34:41;29.30;99.90
11047;DHT22;5576;50.008;10.596;2023-08-20T10:37:10;29.50;99.90
11047;DHT22;5576;50.008;10.596;2023-08-20T10:39:37;29.50;99.90
11047;DHT22;5576;50.008;10.596;2023-08-20T10:42:26;29.50;99.90
11047;DHT22;5576;50.008;10.596;2023-08-20T10:45:01;29.50;99.90
11047;DHT22;5576;50.008;10.596;2023-08-20T10:47:45;29.60;99.90
11047;DHT22;5576;50.008;10.596;2023-08-20T10:50:17;29.80;99.90
11047;DHT22;5576;50.008;10.596;2023-08-20T10:52:56;29.00;99.90
11047;DHT22;5576;50.008;10.596;2023-08-20T10:55:22;27.30;99.90
11047;DHT22;5576;50.008;10.596;2023-08-20T10:57:55;30.10;99.90
11047;DHT22;5576;50.008;10.596;2023-08-20T11:00:22;30.10;99.90
11047;DHT22;5576;50.008;10.596;2023-08-20T11:02:49;28.50;99.90
11047;DHT22;5576;50.008;10.596;2023-08-20T11:05:17;30.20;99.90
11047;DHT22;5576;50.008;10.596;2023-08-20T11:07:45;30.40;99.90
11047;DHT22;5576;50.008;10.596;2023-08-20T11:10:14;30.50;99.90
11047;DHT22;5576;50.008;10.596;2023-08-20T11:12:41;30.50;99.90
11047;DHT22;5576;50.008;10.596;2023-08-20T11:15:09;30.60;99.90
11047;DHT22;5576;50.008;10.596;2023-08-20T11:17:35;30.60;99.90
11047;DHT22;5576;50.008;10.596;2023-08-20T11:20:06;30.80;99.90
11047;DHT22;5576;50.008;10.596;2023-08-20T11:22:33;30.80;99.90
11047;DHT22;5576;50.008;10.596;2023-08-20T11:25:00;30.80;99.90
11047;DHT22;5576;50.008;10.596;2023-08-20T11:27:27;31.00;99.90
11047;DHT22;5576;50.008;10.596;2023-08-20T11:29:52;31.00;99.90
11047;DHT22;5576;50.008;10.596;2023-08-20T11:32:19;31.10;99.90
11047;DHT22;5576;50.008;10.596;2023-08-20T11:34:45;31.10;99.90
11047;DHT22;5576;50.008;10.596;2023-08-20T11:37:10;31.20;99.90
11047;DHT22;5576;50.008;10.596;2023-08-20T11:39:36;31.20;99.90
11047;DHT22;5576;50.008;10.596;2023-08-20T11:42:02;31.10;99.90
11047;DHT22;5576;50.008;10.596;2023-08-20T11:46:54;31.20;99.90
11047;DHT22;5576;50.008;10.596;2023-08-20T11:49:27;31.10;99.90
11047;DHT22;5576;50.008;10.596;2023-08-20T11:51:55;31.10;99.90
11047;DHT22;5576;50.008;10.596;2023-08-20T11:54:22;31.10;99.90
11047;DHT22;5576;50.008;10.596;2023-08-20T11:56:49;31.10;99.90
11047;DHT22;5576;50.008;10.596;2023-08-20T11:59:17;31.30;99.90
11047;DHT22;5576;50.008;10.596;2023-08-20T12:01:43;31.30;99.90
11047;DHT22;5576;50.008;10.596;2023-08-20T12:04:10;31.20;99.90
11047;DHT22;5576;50.008;10.596;2023-08-20T12:06:37;30.40;99.90
11047;DHT22;5576;50.008;10.596;2023-08-20T12:09:20;31.40;99.90
11047;DHT22;5576;50.008;10.596;2023-08-20T12:11:54;31.50;99.90
11047;DHT22;5576;50.008;10.596;2023-08-20T12:14:22;31.70;99.90
11047;DHT22;5576;50.008;10.596;2023-08-20T12:16:48;31.60;99.90
11047;DHT22;5576;50.008;10.596;2023-08-20T12:19:16;31.80;99.90
11047;DHT22;5576;50.008;10.596;2023-08-20T12:21:42;31.80;99.90
11047;DHT22;5576;50.008;10.596;2023-08-20T12:24:10;31.90;99.90
11047;DHT22;5576;50.008;10.596;2023-08-20T12:26:37;31.90;99.90
11047;DHT22;5576;50.008;10.596;2023-08-20T12:29:03;31.90;99.90
11047;DHT22;5576;50.008;10.596;2023-08-20T12:31:28;31.90;99.90
11047;DHT22;5576;50.008;10.596;2023-08-20T12:33:54;31.90;99.90
11047;DHT22;5576;50.008;10.596;2023-08-20T12:38:46;30.20;99.90
11047;DHT22;5576;50.008;10.596;2023-08-20T12:41:11;32.00;99.90
11047;DHT22;5576;50.008;10.596;2023-08-20T12:48:30;32.40;99.90
11047;DHT22;5576;50.008;10.596;2023-08-20T12:50:56;32.40;99.90
11047;DHT22;5576;50.008;10.596;2023-08-20T12:53:22;32.40;99.90
11047;DHT22;5576;50.008;10.596;2023-08-20T12:55:47;32.40;99.90
11047;DHT22;5576;50.008;10.596;2023-08-20T13:00:39;32.40;99.90
11047;DHT22;5576;50.008;10.596;2023-08-20T13:03:05;32.40;99.90
11047;DHT22;5576;50.008;10.596;2023-08-20T13:05:31;31.20;99.90
11047;DHT22;5576;50.008;10.596;2023-08-20T13:07:57;32.70;99.90
11047;DHT22;5576;50.008;10.596;2023-08-20T13:10:24;33.90;99.90
11047;DHT22;5576;50.008;10.596;2023-08-20T13:12:53;34.10;99.90
11047;DHT22;5576;50.008;10.596;2023-08-20T13:15:21;33.60;99.90
11047;DHT22;5576;50.008;10.596;2023-08-20T13:17:49;33.00;99.90
11047;DHT22;5576;50.008;10.596;2023-08-20T13:20:16;32.90;99.90
11047;DHT22;5576;50.008;10.596;2023-08-20T13:22:48;32.90;99.90
11047;DHT22;5576;50.008;10.596;2023-08-20T13:25:15;32.80;99.90
11047;DHT22;5576;50.008;10.596;2023-08-20T13:27:41;32.70;99.90
11047;DHT22;5576;50.008;10.596;2023-08-20T13:30:07;32.60;99.90
11047;DHT22;5576;50.008;10.596;2023-08-20T13:32:34;32.90;99.90
11047;DHT22;5576;50.008;10.596;2023-08-20T13:35:00;32.60;99.90
11047;DHT22;5576;50.008;10.596;2023-08-20T13:37:27;32.70;99.90
11047;DHT22;5576;50.008;10.596;2023-08-20T13:39:52;32.90;99.90
11047;DHT22;5576;50.008;10.596;2023-08-20T13:42:18;32.90;99.90
11047;DHT22;5576;50.008;10.596;2023-08-20T13:44:44;32.80;99.90
11047;DHT22;5576;50.008;10.596;2023-08-20T13:47:09;32.70;99.90
11047;DHT22;5576;50.008;10.596;2023-08-20T13:49:35;32.80;99.90
11047;DHT22;5576;50.008;10.596;2023-08-20T13:52:01;32.80;99.90
11047;DHT22;5576;50.008;10.596;2023-08-20T13:54:27;32.80;99.90
11047;DHT22;5576;50.008;10.596;2023-08-20T13:56:53;32.70;99.90
11047;DHT22;5576;50.008;10.596;2023-08-20T13:59:18;33.10;99.90
11047;DHT22;5576;50.008;10.596;2023-08-20T14:01:44;33.20;99.90
11047;DHT22;5576;50.008;10.596;2023-08-20T14:06:39;33.30;99.90
11047;DHT22;5576;50.008;10.596;2023-08-20T14:09:05;33.30;99.90
11047;DHT22;5576;50.008;10.596;2023-08-20T14:11:30;33.20;99.90
11047;DHT22;5576;50.008;10.596;2023-08-20T14:13:56;33.20;99.90
11047;DHT22;5576;50.008;10.596;2023-08-20T14:16:22;33.00;99.90
11047;DHT22;5576;50.008;10.596;2023-08-20T14:18:48;33.10;99.90
11047;DHT22;5576;50.008;10.596;2023-08-20T14:21:13;33.10;99.90
11047;DHT22;5576;50.008;10.596;2023-08-20T14:23:39;33.20;99.90
11047;DHT22;5576;50.008;10.596;2023-08-20T14:26:06;32.70;99.90
11047;DHT22;5576;50.008;10.596;2023-08-20T14:28:33;33.40;99.90
11047;DHT22;5576;50.008;10.596;2023-08-20T14:31:03;33.30;99.90
11047;DHT22;5576;50.008;10.596;2023-08-20T14:33:32;33.40;99.90
11047;DHT22;5576;50.008;10.596;2023-08-20T14:36:01;33.60;99.90
11047;DHT22;5576;50.008;10.596;2023-08-20T14:38:29;33.60;99.90
11047;DHT22;5576;50.008;10.596;2023-08-20T14:48:21;33.60;99.90
11047;DHT22;5576;50.008;10.596;2023-08-20T14:50:48;33.60;99.90
11047;DHT22;5576;50.008;10.596;2023-08-20T14:53:14;33.70;99.90
11047;DHT22;5576;50.008;10.596;2023-08-20T14:55:40;33.80;99.90
11047;DHT22;5576;50.008;10.596;2023-08-20T15:00:32;36.00;99.90
11047;DHT22;5576;50.008;10.596;2023-08-20T15:02:58;33.80;99.90
11047;DHT22;5576;50.008;10.596;2023-08-20T15:05:24;33.90;99.90
11047;DHT22;5576;50.008;10.596;2023-08-20T15:07:50;34.00;99.90
11047;DHT22;5576;50.008;10.596;2023-08-20T15:10:16;34.00;99.90
11047;DHT22;5576;50.008;10.596;2023-08-20T15:12:41;34.00;99.90
11047;DHT22;5576;50.008;10.596;2023-08-20T15:15:07;34.00;99.90
11047;DHT22;5576;50.008;10.596;2023-08-20T15:17:35;34.00;99.90
11047;DHT22;5576;50.008;10.596;2023-08-20T15:20:01;34.10;99.90
11047;DHT22;5576;50.008;10.596;2023-08-20T15:22:31;33.90;99.90
11047;DHT22;5576;50.008;10.596;2023-08-20T15:24:56;34.30;99.90
11047;DHT22;5576;50.008;10.596;2023-08-20T15:27:24;34.10;99.90
11047;DHT22;5576;50.008;10.596;2023-08-20T15:29:51;33.80;99.90
11047;DHT22;5576;50.008;10.596;2023-08-20T15:34:43;34.00;99.90
11047;DHT22;5576;50.008;10.596;2023-08-20T15:37:09;33.90;99.90
11047;DHT22;5576;50.008;10.596;2023-08-20T15:39:35;34.00;99.90
11047;DHT22;5576;50.008;10.596;2023-08-20T15:42:01;34.30;99.90
11047;DHT22;5576;50.008;10.596;2023-08-20T15:44:28;33.30;99.90
11047;DHT22;5576;50.008;10.596;2023-08-20T15:46:53;34.00;99.90
11047;DHT22;5576;50.008;10.596;2023-08-20T15:49:19;34.00;99.90
11047;DHT22;5576;50.008;10.596;2023-08-20T15:51:45;34.00;99.90
11047;DHT22;5576;50.008;10.596;2023-08-20T15:54:11;34.00;99.90
11047;DHT22;5576;50.008;10.596;2023-08-20T15:56:38;36.40;99.90
11047;DHT22;5576;50.008;10.596;2023-08-20T15:59:04;34.00;99.90
11047;DHT22;5576;50.008;10.596;2023-08-20T16:03:57;34.00;99.90
11047;DHT22;5576;50.008;10.596;2023-08-20T16:06:23;34.10;99.90
11047;DHT22;5576;50.008;10.596;2023-08-20T16:08:49;34.20;99.90
11047;DHT22;5576;50.008;10.596;2023-08-20T16:13:42;34.00;99.90
11047;DHT22;5576;50.008;10.596;2023-08-20T16:16:11;34.10;99.90
11047;DHT22;5576;50.008;10.596;2023-08-20T16:18:38;30.90;99.90
11047;DHT22;5576;50.008;10.596;2023-08-20T16:21:04;34.10;99.90
11047;DHT22;5576;50.008;10.596;2023-08-20T16:23:30;33.50;99.90
11047;DHT22;5576;50.008;10.596;2023-08-20T16:25:56;34.40;99.90
11047;DHT22;5576;50.008;10.596;2023-08-20T16:28:22;34.30;99.90